Time;durP1;ratioP1;P1;durP2;ratioP2;P2;SDS_P1;SDS_P2;PMS_P1;PMS_P2;Temp;Humidity;BMP_temperature;BMP_pressure;BME280_temperature;BME280_humidity;BME280_pressure;Samples;Min_cycle;Max_cycle;Signal;HPM_P1;HPM_P2
2023/08/28 00:01:03;;;;;;;22.63;11.20;;;12.20;99.90;;;;;;6101013;23;20371;-92
2023/08/28 00:03:29;;;;;;;19.33;9.43;;;12.20;99.90;;;;;;6099461;23;20375;-91
2023/08/28 00:05:54;;;;;;;25.55;11.90;;;12.30;99.90;;;;;;6100804;23;21018;-92
2023/08/28 00:08:20;;;;;;;22.05;9.43;;;12.40;99.90;;;;;;6100045;23;20407;-93
2023/08/28 00:10:46;;;;;;;18.07;10.67;;;12.50;99.90;;;;;;6100471;23;20386;-94
2023/08/28 00:13:11;;;;;;;15.85;10.25;;;12.50;99.90;;;;;;6101323;23;20372;-92
2023/08/28 00:15:37;;;;;;;16.17;10.00;;;12.30;99.90;;;;;;6099851;23;20752;-93
2023/08/28 00:18:03;;;;;;;15.02;10.02;;;12.50;99.90;;;;;;6101408;23;20726;-93
2023/08/28 00:20:29;;;;;;;23.25;11.13;;;12.10;99.90;;;;;;6099443;23;21056;-93
2023/08/28 00:22:54;;;;;;;24.08;11.52;;;12.40;99.90;;;;;;6101443;23;20406;-93
2023/08/28 00:25:20;;;;;;;18.13;10.93;;;12.40;99.90;;;;;;6100234;23;20429;-93
2023/08/28 00:27:46;;;;;;;21.37;13.63;;;12.00;99.90;;;;;;6100943;23;20383;-93
2023/08/28 00:30:12;;;;;;;16.97;11.63;;;12.30;99.90;;;;;;6100678;23;20371;-92
2023/08/28 00:32:38;;;;;;;21.95;14.38;;;12.00;99.90;;;;;;6099902;23;20367;-93
2023/08/28 00:35:05;;;;;;;22.35;14.13;;;12.00;99.90;;;;;;6101044;23;20377;-92
2023/08/28 00:37:30;;;;;;;19.38;12.65;;;12.00;99.90;;;;;;6099605;23;20462;-92
2023/08/28 00:39:57;;;;;;;21.57;13.37;;;12.40;99.90;;;;;;6101095;23;20406;-93
2023/08/28 00:42:23;;;;;;;24.85;15.30;;;12.30;99.90;;;;;;6099464;23;20380;-93
2023/08/28 00:44:48;;;;;;;28.98;17.50;;;12.50;99.90;;;;;;6100676;23;20422;-94
2023/08/28 00:47:14;;;;;;;24.63;14.97;;;12.10;99.90;;;;;;6099620;23;20383;-93
2023/08/28 00:49:41;;;;;;;28.53;14.63;;;12.00;99.90;;;;;;6100386;23;20390;-92
2023/08/28 00:52:07;;;;;;;28.63;12.20;;;12.30;99.90;;;;;;6100706;23;20377;-94
2023/08/28 00:54:33;;;;;;;106.00;20.08;;;12.40;99.90;;;;;;6099702;23;20371;-93
2023/08/28 00:56:59;;;;;;;23.37;15.83;;;12.00;99.90;;;;;;6100851;23;20436;-92
2023/08/28 00:59:27;;;;;;;22.98;13.95;;;12.20;99.90;;;;;;6099265;23;20378;-93
2023/08/28 01:01:53;;;;;;;48.55;22.05;;;12.20;99.90;;;;;;6100552;23;20407;-94
2023/08/28 01:04:19;;;;;;;87.97;20.58;;;12.00;99.90;;;;;;6099077;23;20446;-92
2023/08/28 01:06:50;;;;;;;118.45;19.73;;;12.00;99.90;;;;;;6100277;23;20383;-93
2023/08/28 01:09:39;;;;;;;47.25;19.63;;;11.80;99.90;;;;;;6100198;23;20379;-93
2023/08/28 01:12:29;;;;;;;30.17;15.27;;;11.80;99.90;;;;;;6098782;23;20379;-92
2023/08/28 01:15:05;;;;;;;22.67;13.80;;;11.80;99.90;;;;;;6100892;23;20387;-92
2023/08/28 01:17:32;;;;;;;28.13;15.18;;;11.80;99.90;;;;;;6099569;23;20372;-91
2023/08/28 01:19:59;;;;;;;22.77;14.53;;;12.10;99.90;;;;;;6100098;23;20379;-93
2023/08/28 01:22:57;;;;;;;25.83;15.13;;;12.30;99.90;;;;;;6100862;23;20381;-92
2023/08/28 01:25:24;;;;;;;25.77;14.67;;;11.60;99.90;;;;;;6097465;23;20410;-91
2023/08/28 01:27:51;;;;;;;30.60;17.13;;;12.00;99.90;;;;;;6100678;23;20890;-92
2023/08/28 01:30:18;;;;;;;52.53;22.20;;;12.00;99.90;;;;;;6098457;23;20451;-92
2023/08/28 01:32:45;;;;;;;29.67;16.23;;;12.00;99.90;;;;;;6100304;23;20430;-92
2023/08/28 01:35:24;;;;;;;20.35;13.25;;;12.20;99.90;;;;;;6099759;23;20474;-92
2023/08/28 01:38:05;;;;;;;31.03;15.60;;;12.00;99.90;;;;;;6099062;23;20389;-93
2023/08/28 01:40:39;;;;;;;157.60;22.13;;;11.80;99.90;;;;;;6100714;23;20383;-93
2023/08/28 01:43:11;;;;;;;68.53;14.50;;;11.70;99.90;;;;;;6098359;23;20848;-91
2023/08/28 01:45:38;;;;;;;54.22;17.30;;;11.70;99.90;;;;;;6099965;23;20477;-92
2023/08/28 01:48:05;;;;;;;69.75;14.20;;;11.90;99.90;;;;;;6099836;23;20367;-92
2023/08/28 01:50:31;;;;;;;102.22;17.45;;;11.60;99.90;;;;;;6099063;23;20382;-93
2023/08/28 01:52:56;;;;;;;37.70;18.87;;;11.50;99.90;;;;;;6100105;23;20427;-91
2023/08/28 01:55:46;;;;;;;41.25;16.65;;;12.30;99.90;;;;;;6098446;23;20390;-92
2023/08/28 01:58:12;;;;;;;33.55;16.42;;;11.60;99.90;;;;;;6100427;23;20375;-93
2023/08/28 02:00:38;;;;;;;38.22;12.68;;;11.60;99.90;;;;;;6098715;23;20386;-92
2023/08/28 02:03:05;;;;;;;58.70;12.77;;;11.80;99.90;;;;;;6099445;23;20371;-92
2023/08/28 02:05:32;;;;;;;34.28;15.13;;;11.80;99.90;;;;;;6099680;23;20399;-91
2023/08/28 02:07:57;;;;;;;30.33;15.43;;;11.20;99.90;;;;;;6099353;23;20367;-92
2023/08/28 02:10:23;;;;;;;50.63;20.70;;;11.90;99.90;;;;;;6100283;23;20382;-92
2023/08/28 02:12:48;;;;;;;28.97;16.97;;;11.80;99.90;;;;;;6098686;23;20383;-92
2023/08/28 02:15:14;;;;;;;23.65;14.70;;;11.90;99.90;;;;;;6100297;23;20375;-93
2023/08/28 02:17:40;;;;;;;29.97;16.57;;;11.50;99.90;;;;;;6098707;23;20375;-93
2023/08/28 02:20:06;;;;;;;33.00;17.60;;;11.70;99.90;;;;;;6100295;23;20879;-92
2023/08/28 02:22:32;;;;;;;26.27;16.17;;;11.40;99.90;;;;;;6098920;23;20375;-92
2023/08/28 02:24:58;;;;;;;26.57;15.87;;;11.80;99.90;;;;;;6099550;23;20402;-92
2023/08/28 02:27:24;;;;;;;68.85;23.15;;;11.70;99.90;;;;;;6100082;23;20475;-92
2023/08/28 02:29:50;;;;;;;43.83;20.92;;;11.20;99.90;;;;;;6098705;23;20419;-92
2023/08/28 02:32:15;;;;;;;33.97;18.83;;;11.60;99.90;;;;;;6099806;23;20371;-92
2023/08/28 02:34:42;;;;;;;29.40;15.88;;;11.70;99.90;;;;;;6098451;23;20939;-91
2023/08/28 02:37:07;;;;;;;71.40;21.20;;;11.40;99.90;;;;;;6100327;23;20466;-92
2023/08/28 02:39:33;;;;;;;27.38;14.57;;;11.50;99.90;;;;;;6098821;23;20379;-91
2023/08/28 02:41:59;;;;;;;51.77;21.03;;;11.50;99.90;;;;;;6099708;23;20379;-92
2023/08/28 02:44:24;;;;;;;20.13;14.40;;;11.20;99.90;;;;;;6098931;23;20410;-92
2023/08/28 02:46:50;;;;;;;23.30;15.25;;;11.40;99.90;;;;;;6099261;23;20379;-93
2023/08/28 02:49:16;;;;;;;24.37;15.37;;;11.20;99.90;;;;;;6099774;23;20457;-93
2023/08/28 02:51:41;;;;;;;29.67;16.70;;;11.10;99.90;;;;;;6098585;23;20375;-92
2023/08/28 02:54:08;;;;;;;21.60;13.33;;;11.40;99.90;;;;;;6100152;23;20378;-92
2023/08/28 02:56:37;;;;;;;60.03;24.58;;;11.10;99.90;;;;;;6098368;23;20417;-92
2023/08/28 02:59:03;;;;;;;37.25;17.80;;;11.10;99.90;;;;;;6099710;23;20882;-91
2023/08/28 03:01:34;;;;;;;27.05;16.25;;;11.10;99.90;;;;;;6098907;23;20375;-92
2023/08/28 03:04:06;;;;;;;28.92;16.33;;;11.80;99.90;;;;;;6099407;23;20763;-93
2023/08/28 03:06:38;;;;;;;166.85;21.33;;;11.10;99.90;;;;;;6099917;23;20391;-92
2023/08/28 03:09:04;;;;;;;41.30;22.00;;;11.10;99.90;;;;;;6098413;23;20414;-91
2023/08/28 03:11:30;;;;;;;26.30;17.60;;;11.00;99.90;;;;;;6099915;23;20394;-92
2023/08/28 03:13:56;;;;;;;36.10;20.07;;;11.10;99.90;;;;;;6098918;23;20375;-91
2023/08/28 03:16:22;;;;;;;38.33;20.70;;;11.50;99.90;;;;;;6101709;23;20429;-92
2023/08/28 03:18:48;;;;;;;40.50;22.00;;;11.90;99.90;;;;;;6100808;23;20383;-92
2023/08/28 03:21:14;;;;;;;35.55;20.80;;;11.20;99.90;;;;;;6101809;23;20371;-92
2023/08/28 03:23:40;;;;;;;45.83;23.83;;;11.60;99.90;;;;;;6101676;23;21069;-92
2023/08/28 03:26:06;;;;;;;42.88;24.00;;;11.40;99.90;;;;;;6100141;23;20406;-93
2023/08/28 03:28:31;;;;;;;54.53;27.55;;;11.40;99.90;;;;;;6101606;23;20390;-92
2023/08/28 03:30:59;;;;;;;50.23;26.57;;;11.40;99.90;;;;;;6100270;23;20379;-91
2023/08/28 03:33:24;;;;;;;33.38;21.38;;;11.60;99.90;;;;;;6102340;23;20724;-92
2023/08/28 03:35:50;;;;;;;36.07;22.60;;;11.90;99.90;;;;;;6100331;23;20371;-92
2023/08/28 03:38:16;;;;;;;34.97;22.03;;;11.40;99.90;;;;;;6101673;23;20375;-92
2023/08/28 03:40:43;;;;;;;28.85;20.63;;;11.70;99.90;;;;;;6101113;23;21100;-92
2023/08/28 03:43:09;;;;;;;47.15;25.15;;;11.70;99.90;;;;;;6100582;23;20466;-92
2023/08/28 03:45:34;;;;;;;38.65;22.55;;;11.50;99.90;;;;;;6101410;23;20442;-93
2023/08/28 03:48:00;;;;;;;24.27;16.53;;;11.90;99.90;;;;;;6100512;23;20375;-93
2023/08/28 03:50:29;;;;;;;24.45;17.00;;;12.00;99.90;;;;;;6101679;23;20469;-93
2023/08/28 03:52:58;;;;;;;41.57;23.73;;;11.90;99.90;;;;;;6099875;23;20401;-92
2023/08/28 03:55:24;;;;;;;29.35;18.90;;;11.80;99.90;;;;;;6101255;23;20389;-92
2023/08/28 03:57:50;;;;;;;40.92;23.73;;;11.70;99.90;;;;;;6100135;23;21176;-94
2023/08/28 04:00:18;;;;;;;43.10;24.35;;;11.70;99.90;;;;;;6101011;23;20425;-94
2023/08/28 04:02:46;;;;;;;47.67;25.55;;;12.00;99.90;;;;;;6101261;23;20402;-92
2023/08/28 04:05:12;;;;;;;36.63;21.27;;;12.20;99.90;;;;;;6099621;23;20399;-94
2023/08/28 04:07:37;;;;;;;28.48;19.38;;;11.90;99.90;;;;;;6101307;23;20697;-93
2023/08/28 04:10:04;;;;;;;28.30;18.83;;;12.00;99.90;;;;;;6099335;23;20415;-94
2023/08/28 04:12:29;;;;;;;34.92;21.40;;;11.80;99.90;;;;;;6101382;23;20882;-94
2023/08/28 04:14:57;;;;;;;38.20;22.60;;;12.10;99.90;;;;;;6099649;23;20367;-93
2023/08/28 04:17:23;;;;;;;35.97;22.00;;;12.10;99.90;;;;;;6100860;23;20379;-93
2023/08/28 04:19:51;;;;;;;61.05;27.77;;;12.40;99.90;;;;;;6100804;23;20383;-94
2023/08/28 04:22:17;;;;;;;60.63;27.42;;;12.60;99.90;;;;;;6099421;23;21260;-93
2023/08/28 04:24:45;;;;;;;44.97;23.95;;;12.20;99.90;;;;;;6100336;23;20492;-94
2023/08/28 04:27:11;;;;;;;54.47;27.30;;;12.30;99.90;;;;;;6098843;23;20700;-95
2023/08/28 04:29:38;;;;;;;59.58;28.98;;;11.90;99.90;;;;;;6100822;23;20386;-93
2023/08/28 04:32:04;;;;;;;49.88;25.67;;;11.60;99.90;;;;;;6098702;23;20871;-94
2023/08/28 04:34:29;;;;;;;43.53;23.10;;;12.10;99.90;;;;;;6100915;23;20383;-93
2023/08/28 04:36:55;;;;;;;47.15;25.35;;;12.30;99.90;;;;;;6099708;23;20386;-94
2023/08/28 04:39:23;;;;;;;26.13;18.73;;;11.70;99.90;;;;;;6099729;23;20379;-93
2023/08/28 04:41:49;;;;;;;36.90;20.35;;;12.20;99.90;;;;;;6100404;23;20371;-93
2023/08/28 04:44:14;;;;;;;34.85;22.25;;;12.30;99.90;;;;;;6098092;23;20394;-93
2023/08/28 04:46:40;;;;;;;49.63;26.27;;;12.40;99.90;;;;;;6100690;23;20446;-93
2023/08/28 04:49:06;;;;;;;35.53;20.87;;;11.80;99.90;;;;;;6097588;23;20375;-94
2023/08/28 04:51:32;;;;;;;46.25;23.05;;;12.40;99.90;;;;;;6100951;23;20456;-94
2023/08/28 04:53:57;;;;;;;47.00;25.58;;;12.00;99.90;;;;;;6099319;23;20728;-94
2023/08/28 04:56:23;;;;;;;50.03;24.93;;;12.40;99.90;;;;;;6099865;23;20406;-91
2023/08/28 04:58:49;;;;;;;40.10;23.23;;;12.00;99.90;;;;;;6097939;23;20371;-95
2023/08/28 05:01:15;;;;;;;49.17;25.30;;;12.20;99.90;;;;;;6098012;23;20461;-95
2023/08/28 05:03:41;;;;;;;37.17;21.85;;;12.30;99.90;;;;;;6099573;23;21193;-94
2023/08/28 05:06:06;;;;;;;48.90;26.52;;;12.40;99.90;;;;;;6097955;23;20405;-94
2023/08/28 05:08:32;;;;;;;43.43;25.10;;;12.10;99.90;;;;;;6101129;23;20531;-95
2023/08/28 05:11:00;;;;;;;29.87;21.50;;;12.10;99.90;;;;;;6098255;23;20394;-94
2023/08/28 05:13:30;;;;;;;37.80;23.10;;;11.80;99.90;;;;;;6099497;23;20753;-94
2023/08/28 05:15:59;;;;;;;45.85;25.90;;;12.00;99.90;;;;;;6098738;23;20375;-95
2023/08/28 05:18:26;;;;;;;51.45;28.20;;;12.50;99.90;;;;;;6098787;23;20469;-95
2023/08/28 05:20:51;;;;;;;35.78;23.00;;;12.40;99.90;;;;;;6101774;23;20390;-95
2023/08/28 05:23:52;;;;;;;49.63;25.60;;;12.20;99.90;;;;;;6098781;23;20371;-95
2023/08/28 05:26:33;;;;;;;37.78;23.02;;;12.60;99.90;;;;;;6124552;23;20442;-96
2023/08/28 05:29:06;;;;;;;51.80;26.13;;;12.70;99.90;;;;;;6101133;23;20379;-96
2023/08/28 05:32:09;;;;;;;42.72;24.25;;;12.30;99.90;;;;;;6102976;23;20386;-95
2023/08/28 05:34:35;;;;;;;44.67;25.38;;;12.50;99.90;;;;;;6098951;23;20379;-95
2023/08/28 05:37:00;;;;;;;31.27;20.58;;;12.70;99.90;;;;;;6097830;23;20386;-96
2023/08/28 05:39:31;;;;;;;38.67;24.37;;;12.40;99.90;;;;;;6099927;23;20371;-95
2023/08/28 05:42:00;;;;;;;34.33;23.15;;;12.40;99.90;;;;;;6097401;23;20455;-96
2023/08/28 05:44:55;;;;;;;;;;;;;;;;;;;;;
2023/08/28 05:47:47;;;;;;;24.50;19.42;;;12.60;99.90;;;;;;6120296;23;20376;-95
2023/08/28 05:54:33;;;;;;;46.17;25.13;;;13.20;99.90;;;;;;6049661;23;20395;-96
2023/08/28 05:59:54;;;;;;;39.67;25.08;;;13.00;99.90;;;;;;6036035;23;20391;-96
2023/08/28 06:02:33;;;;;;;26.00;19.73;;;13.40;99.90;;;;;;6109237;23;20385;-96
2023/08/28 06:05:25;;;;;;;36.72;23.52;;;13.50;99.90;;;;;;6113066;23;20383;-96
2023/08/28 06:07:58;;;;;;;35.05;23.50;;;13.40;99.90;;;;;;6031347;23;20403;-95
2023/08/28 06:10:28;;;;;;;32.20;21.52;;;13.40;99.90;;;;;;6106006;23;20444;-96
2023/08/28 06:12:57;;;;;;;29.60;21.38;;;13.60;99.90;;;;;;6100632;23;20384;-94
2023/08/28 06:15:24;;;;;;;27.92;20.33;;;13.90;99.90;;;;;;6106805;23;20384;-95
2023/08/28 06:17:50;;;;;;;27.33;20.33;;;14.20;99.90;;;;;;6102590;23;20381;-95
2023/08/28 06:20:16;;;;;;;28.90;19.95;;;14.30;99.90;;;;;;6094934;23;20373;-94
2023/08/28 06:22:56;;;;;;;23.80;20.88;;;14.10;99.90;;;;;;6098019;23;20412;-95
2023/08/28 06:25:22;;;;;;;27.35;19.67;;;14.40;99.90;;;;;;6099302;23;20409;-94
2023/08/28 06:27:48;;;;;;;27.02;21.38;;;14.30;99.90;;;;;;6093183;23;20431;-94
2023/08/28 06:30:14;;;;;;;25.08;21.25;;;14.60;99.90;;;;;;6094021;23;20735;-93
2023/08/28 06:32:40;;;;;;;27.20;23.60;;;14.80;99.90;;;;;;6093294;23;20553;-93
2023/08/28 06:35:06;;;;;;;25.80;21.92;;;14.80;99.90;;;;;;6093453;23;20395;-93
2023/08/28 06:37:32;;;;;;;19.90;16.80;;;14.90;99.90;;;;;;6094562;23;20376;-93
2023/08/28 06:39:57;;;;;;;19.38;15.15;;;15.60;99.90;;;;;;6092217;23;20372;-92
2023/08/28 06:42:23;;;;;;;16.50;13.40;;;15.10;99.90;;;;;;6094704;23;20384;-93
2023/08/28 06:44:49;;;;;;;13.23;11.93;;;15.50;99.90;;;;;;6092745;23;20404;-93
2023/08/28 06:47:14;;;;;;;13.30;11.70;;;15.30;99.90;;;;;;6094311;23;20854;-93
2023/08/28 06:49:41;;;;;;;17.43;14.90;;;15.40;99.90;;;;;;6092681;23;20389;-93
2023/08/28 06:52:08;;;;;;;13.05;11.65;;;15.50;99.90;;;;;;6094311;23;20876;-94
2023/08/28 06:54:34;;;;;;;16.33;14.63;;;16.00;99.90;;;;;;6093196;23;20372;-93
2023/08/28 06:57:00;;;;;;;14.35;11.93;;;15.70;99.90;;;;;;6093397;23;20481;-93
2023/08/28 06:59:25;;;;;;;14.50;11.13;;;16.20;99.90;;;;;;6093882;23;20377;-93
2023/08/28 07:01:51;;;;;;;11.85;9.93;;;16.20;99.90;;;;;;6092851;23;20376;-93
2023/08/28 07:04:17;;;;;;;12.90;10.73;;;16.40;99.90;;;;;;6094301;23;20396;-93
2023/08/28 07:06:42;;;;;;;11.10;9.33;;;16.20;99.90;;;;;;6092392;23;20407;-93
2023/08/28 07:09:08;;;;;;;9.05;6.13;;;16.50;99.90;;;;;;6093847;23;20377;-92
2023/08/28 07:11:34;;;;;;;9.77;7.53;;;16.20;99.90;;;;;;6092731;23;20468;-93
2023/08/28 07:13:59;;;;;;;7.95;6.22;;;16.60;99.90;;;;;;6093529;23;20381;-92
2023/08/28 07:16:25;;;;;;;9.60;6.50;;;16.80;99.90;;;;;;6093233;23;20379;-92
2023/08/28 07:18:51;;;;;;;7.97;5.45;;;16.80;99.90;;;;;;6093324;23;20473;-93
2023/08/28 07:21:16;;;;;;;7.70;6.23;;;17.00;99.90;;;;;;6094111;23;20377;-93
2023/08/28 07:23:42;;;;;;;6.53;4.57;;;17.10;99.90;;;;;;6092392;23;20400;-91
2023/08/28 07:26:08;;;;;;;6.05;4.50;;;16.70;99.90;;;;;;6094078;23;20488;-95
2023/08/28 07:28:34;;;;;;;8.38;4.55;;;17.00;99.90;;;;;;6092787;23;20762;-93
2023/08/28 07:31:00;;;;;;;5.50;4.20;;;17.10;99.90;;;;;;6093849;23;20392;-94
2023/08/28 07:33:25;;;;;;;6.03;3.20;;;16.80;99.90;;;;;;6093008;23;20379;-93
2023/08/28 07:35:51;;;;;;;5.38;1.75;;;17.30;99.90;;;;;;6093351;23;20702;-95
2023/08/28 07:38:18;;;;;;;5.80;3.47;;;17.00;99.90;;;;;;6093685;23;20446;-93
2023/08/28 07:40:46;;;;;;;5.95;1.67;;;17.40;99.90;;;;;;6092977;23;20372;-92
2023/08/28 07:43:12;;;;;;;5.33;2.80;;;17.90;99.90;;;;;;6094278;23;20369;-92
2023/08/28 07:45:38;;;;;;;7.28;2.10;;;17.10;99.90;;;;;;6097429;23;20528;-93
2023/08/28 07:48:04;;;;;;;4.77;0.90;;;17.20;99.90;;;;;;6098683;23;20367;-93
2023/08/28 07:50:30;;;;;;;3.90;1.30;;;17.30;99.90;;;;;;6097772;23;20367;-93
2023/08/28 07:52:57;;;;;;;4.50;1.20;;;17.50;99.90;;;;;;6098070;23;20389;-94
2023/08/28 07:55:23;;;;;;;4.82;1.40;;;17.30;99.90;;;;;;6097863;23;20375;-94
2023/08/28 07:57:49;;;;;;;3.20;1.00;;;17.90;99.90;;;;;;6097896;23;20374;-93
2023/08/28 08:00:16;;;;;;;3.13;0.90;;;17.90;99.90;;;;;;6098644;23;20403;-93
2023/08/28 08:02:41;;;;;;;2.95;0.50;;;17.50;99.90;;;;;;6098882;23;20371;-95
2023/08/28 08:05:11;;;;;;;2.55;0.50;;;17.80;99.90;;;;;;6100218;23;20391;-94
2023/08/28 08:07:40;;;;;;;3.35;0.45;;;17.60;99.90;;;;;;6098548;23;20697;-95
2023/08/28 08:10:10;;;;;;;2.50;0.30;;;17.50;99.90;;;;;;6100193;23;20405;-93
2023/08/28 08:12:38;;;;;;;3.63;0.55;;;17.60;99.90;;;;;;6099090;23;20465;-94
2023/08/28 08:15:06;;;;;;;2.97;0.52;;;17.90;99.90;;;;;;6099333;23;20379;-93
2023/08/28 08:17:31;;;;;;;3.33;0.50;;;18.00;99.90;;;;;;6100570;23;20371;-94
2023/08/28 08:19:57;;;;;;;4.60;0.50;;;18.10;99.90;;;;;;6098655;23;20879;-93
2023/08/28 08:22:23;;;;;;;3.43;0.40;;;18.60;99.90;;;;;;6100428;23;20421;-95
2023/08/28 08:24:48;;;;;;;3.53;0.50;;;18.70;99.90;;;;;;6098399;23;20757;-96
2023/08/28 08:27:14;;;;;;;3.70;0.50;;;19.10;99.90;;;;;;6099022;23;20403;-94
2023/08/28 08:29:40;;;;;;;3.60;0.32;;;19.20;99.90;;;;;;6096981;23;20387;-94
2023/08/28 08:32:06;;;;;;;2.47;0.73;;;18.60;99.90;;;;;;6098111;23;20417;-95
2023/08/28 08:34:58;;;;;;;6.33;1.20;;;18.90;99.90;;;;;;6098693;23;20812;-96
2023/08/28 08:37:26;;;;;;;7.90;1.77;;;18.20;99.90;;;;;;6113792;23;20383;-95
2023/08/28 08:39:51;;;;;;;6.60;2.53;;;17.90;99.90;;;;;;6098950;23;20371;-94
2023/08/28 08:42:17;;;;;;;7.07;2.77;;;17.50;99.90;;;;;;6097270;23;20454;-95
2023/08/28 08:45:12;;;;;;;7.60;3.83;;;17.30;99.90;;;;;;6102413;23;20450;-96
2023/08/28 08:48:36;;;;;;;;;;;;;;;;;;;;;
2023/08/28 08:55:03;;;;;;;10.35;4.82;;;16.20;99.90;;;;;;6103834;23;20406;-95
2023/08/28 09:01:35;;;;;;;10.85;7.35;;;16.40;99.90;;;;;;6032147;23;20699;-95
2023/08/28 09:04:02;;;;;;;9.13;5.72;;;16.50;99.90;;;;;;6009743;23;20376;-96
2023/08/28 09:06:32;;;;;;;7.22;5.68;;;17.30;99.90;;;;;;6008469;23;20435;-95
2023/08/28 09:09:00;;;;;;;12.05;5.10;;;17.60;99.90;;;;;;6011009;23;20381;-95
2023/08/28 09:11:29;;;;;;;6.97;2.60;;;17.60;99.90;;;;;;6008463;23;20380;-94
2023/08/28 09:13:54;;;;;;;4.47;1.75;;;17.90;99.90;;;;;;6010720;23;20408;-94
2023/08/28 09:16:20;;;;;;;5.13;2.13;;;17.70;99.90;;;;;;6009315;23;20384;-94
2023/08/28 09:18:46;;;;;;;4.97;2.17;;;17.70;99.90;;;;;;6011276;23;20873;-94
2023/08/28 09:21:13;;;;;;;4.20;2.25;;;17.30;99.90;;;;;;6011307;23;20952;-94
2023/08/28 09:23:48;;;;;;;4.65;2.10;;;17.50;99.90;;;;;;6011544;23;20416;-93
2023/08/28 09:26:22;;;;;;;5.85;2.40;;;17.30;99.90;;;;;;6011156;23;20411;-92
2023/08/28 09:29:02;;;;;;;7.23;3.27;;;16.90;99.90;;;;;;6062692;23;20789;-93
2023/08/28 09:31:33;;;;;;;5.93;2.53;;;17.00;99.90;;;;;;6099478;23;20441;-92
2023/08/28 09:33:59;;;;;;;3.85;2.25;;;17.00;99.90;;;;;;6097451;23;20372;-94
2023/08/28 09:36:27;;;;;;;4.40;1.27;;;17.40;99.90;;;;;;6099129;23;20748;-93
2023/08/28 09:39:06;;;;;;;3.17;0.67;;;18.10;99.90;;;;;;6098848;23;20743;-94
2023/08/28 09:41:43;;;;;;;2.67;0.50;;;17.90;99.90;;;;;;6098168;23;20379;-91
2023/08/28 09:44:09;;;;;;;3.70;0.73;;;18.20;99.90;;;;;;6100586;23;20386;-94
2023/08/28 09:46:37;;;;;;;4.85;1.40;;;18.50;99.90;;;;;;6097340;23;20405;-93
2023/08/28 09:49:05;;;;;;;4.38;1.00;;;18.60;99.90;;;;;;6099306;23;20375;-93
2023/08/28 09:51:43;;;;;;;4.13;0.95;;;18.70;99.90;;;;;;6098265;23;20367;-94
2023/08/28 09:54:11;;;;;;;5.60;1.93;;;18.60;99.90;;;;;;6098009;23;20385;-94
2023/08/28 09:56:40;;;;;;;3.85;0.98;;;18.80;99.90;;;;;;6098966;23;20398;-92
2023/08/28 09:59:09;;;;;;;2.03;0.40;;;18.80;99.90;;;;;;6097371;23;20375;-95
2023/08/28 10:01:37;;;;;;;2.28;0.40;;;19.10;99.90;;;;;;6099116;23;20394;-95
2023/08/28 10:04:10;;;;;;;3.47;0.40;;;19.10;99.90;;;;;;6097156;23;20371;-93
2023/08/28 10:06:44;;;;;;;2.93;0.40;;;19.80;99.90;;;;;;6098765;23;20398;-93
2023/08/28 10:09:18;;;;;;;2.10;0.40;;;20.20;99.90;;;;;;6097873;23;20441;-95
2023/08/28 10:11:45;;;;;;;2.90;0.40;;;20.50;99.90;;;;;;6098511;23;20391;-96
2023/08/28 10:14:12;;;;;;;2.20;0.30;;;20.80;99.90;;;;;;6099132;23;20748;-95
2023/08/28 10:16:52;;;;;;;3.38;0.30;;;21.00;99.90;;;;;;6097082;23;20440;-95
2023/08/28 10:19:38;;;;;;;1.85;0.25;;;21.30;99.90;;;;;;6099239;23;20441;-95
2023/08/28 10:22:07;;;;;;;2.33;0.30;;;20.50;99.90;;;;;;6098048;23;20422;-95
2023/08/28 10:24:35;;;;;;;2.35;0.30;;;20.40;99.90;;;;;;6097990;23;20378;-92
2023/08/28 10:27:01;;;;;;;1.98;0.30;;;20.20;99.90;;;;;;6099231;23;20398;-92
2023/08/28 10:29:27;;;;;;;1.58;0.25;;;19.90;99.90;;;;;;6098095;23;20383;-93
2023/08/28 10:31:55;;;;;;;2.60;0.30;;;19.60;99.90;;;;;;6099638;23;20704;-93
2023/08/28 10:34:22;;;;;;;1.33;0.20;;;19.50;99.90;;;;;;6097642;23;20455;-94
2023/08/28 10:36:51;;;;;;;1.95;0.43;;;19.20;99.90;;;;;;6099599;23;20367;-93
2023/08/28 10:39:17;;;;;;;1.63;0.20;;;19.00;99.90;;;;;;6098557;23;20374;-92
2023/08/28 10:41:46;;;;;;;2.58;0.43;;;18.70;99.90;;;;;;6099321;23;20367;-93
2023/08/28 10:44:13;;;;;;;2.20;0.30;;;18.40;99.90;;;;;;6098474;23;20390;-92
2023/08/28 10:46:40;;;;;;;3.90;0.32;;;19.00;99.90;;;;;;6097852;23;20403;-93
2023/08/28 10:49:06;;;;;;;2.30;0.30;;;18.80;99.90;;;;;;6099557;23;20485;-93
2023/08/28 10:51:36;;;;;;;2.10;0.30;;;19.40;99.90;;;;;;6097715;23;20375;-93
2023/08/28 10:54:11;;;;;;;1.90;0.30;;;20.20;99.90;;;;;;6099402;23;20406;-93
2023/08/28 10:56:38;;;;;;;1.23;0.20;;;21.00;99.90;;;;;;6097815;23;20765;-93
2023/08/28 10:59:25;;;;;;;1.13;0.10;;;21.80;99.90;;;;;;6098415;23;20369;-93
2023/08/28 11:01:55;;;;;;;0.98;0.17;;;22.20;99.90;;;;;;6098777;23;20466;-94
2023/08/28 11:04:22;;;;;;;2.03;0.20;;;22.40;99.90;;;;;;6097508;23;20409;-92
2023/08/28 11:06:48;;;;;;;0.70;0.10;;;22.90;99.90;;;;;;6098811;23;20399;-94
2023/08/28 11:09:26;;;;;;;1.90;0.20;;;23.00;99.90;;;;;;6097748;23;20474;-94
2023/08/28 11:11:58;;;;;;;2.38;0.20;;;23.60;99.90;;;;;;6099714;23;20386;-94
2023/08/28 11:14:38;;;;;;;0.90;0.10;;;23.20;95.60;;;;;;6098337;23;20708;-93
2023/08/28 11:17:09;;;;;;;1.55;0.20;;;22.80;83.70;;;;;;6098173;23;20446;-94
2023/08/28 11:19:59;;;;;;;1.17;0.20;;;22.40;99.90;;;;;;6099166;23;20375;-92
2023/08/28 11:22:35;;;;;;;1.20;0.20;;;22.90;95.00;;;;;;6079502;23;20379;-93
2023/08/28 11:25:04;;;;;;;1.27;0.20;;;23.30;99.90;;;;;;6098275;23;20851;-95
2023/08/28 11:27:53;;;;;;;1.98;0.10;;;23.80;93.50;;;;;;6098337;23;20492;-94
2023/08/28 11:30:21;;;;;;;0.75;0.10;;;24.30;92.40;;;;;;6097243;23;20371;-94
2023/08/28 11:32:52;;;;;;;0.70;0.20;;;24.70;93.70;;;;;;6099185;23;20371;-93
2023/08/28 11:35:19;;;;;;;1.02;0.10;;;25.10;83.40;;;;;;6100297;23;20379;-94
2023/08/28 11:37:50;;;;;;;1.90;0.20;;;25.10;74.40;;;;;;6100604;23;20375;-93
2023/08/28 11:40:25;;;;;;;1.52;0.20;;;24.80;64.70;;;;;;6100559;23;20378;-93
2023/08/28 11:43:14;;;;;;;1.10;0.10;;;24.00;66.60;;;;;;6100459;23;20383;-94
2023/08/28 11:45:42;;;;;;;0.73;0.10;;;24.00;78.60;;;;;;6101029;23;20407;-92
2023/08/28 11:48:07;;;;;;;0.70;0.10;;;24.30;81.10;;;;;;6100047;23;20375;-93
2023/08/28 11:50:34;;;;;;;1.03;0.10;;;24.80;76.70;;;;;;6100536;23;20433;-93
2023/08/28 11:52:59;;;;;;;0.77;0.10;;;25.30;88.60;;;;;;6099917;23;20907;-94
2023/08/28 11:55:26;;;;;;;1.20;0.20;;;25.30;67.60;;;;;;6099893;23;20426;-95
2023/08/28 11:57:51;;;;;;;1.33;0.20;;;24.80;61.60;;;;;;6099944;23;20522;-93
2023/08/28 12:00:18;;;;;;;0.83;0.10;;;24.60;88.80;;;;;;6098423;23;20403;-94
2023/08/28 12:02:45;;;;;;;1.73;0.30;;;24.00;77.90;;;;;;6099388;23;20371;-94
2023/08/28 12:05:14;;;;;;;1.45;0.10;;;24.30;96.20;;;;;;6098552;23;20399;-93
2023/08/28 12:07:43;;;;;;;1.38;0.20;;;24.30;95.00;;;;;;6099722;23;20550;-94
2023/08/28 12:10:10;;;;;;;1.23;0.17;;;24.80;71.30;;;;;;6098911;23;20425;-96
2023/08/28 12:12:36;;;;;;;1.08;0.10;;;25.30;72.50;;;;;;6123294;23;20419;-92
2023/08/28 12:15:03;;;;;;;1.33;0.10;;;25.80;61.50;;;;;;6098861;23;20768;-93
2023/08/28 12:21:58;;;;;;;;;;;;;;;;;;;;;
2023/08/28 12:24:29;;;;;;;1.42;0.20;;;26.20;63.00;;;;;;6055387;23;20387;-93
2023/08/28 12:26:56;;;;;;;1.75;0.20;;;25.60;62.10;;;;;;6098256;23;20442;-95
2023/08/28 12:29:25;;;;;;;1.30;0.10;;;25.20;63.60;;;;;;6109442;23;20375;-95
2023/08/28 12:31:54;;;;;;;1.60;0.20;;;25.10;65.60;;;;;;6104601;23;20407;-96
2023/08/28 12:34:42;;;;;;;1.95;0.20;;;25.00;65.20;;;;;;6112534;23;20382;-95
2023/08/28 12:37:13;;;;;;;2.53;0.20;;;25.10;69.20;;;;;;6115329;23;20371;-96
2023/08/28 12:39:51;;;;;;;1.57;0.20;;;25.20;66.00;;;;;;6115659;23;20375;-96
2023/08/28 12:42:41;;;;;;;1.67;0.20;;;25.60;68.20;;;;;;6107468;23;20385;-96
2023/08/28 12:45:07;;;;;;;1.60;0.20;;;25.40;72.70;;;;;;6109016;23;20394;-96
2023/08/28 12:47:33;;;;;;;1.20;0.20;;;25.20;65.60;;;;;;6114425;23;20386;-95
2023/08/28 12:50:03;;;;;;;0.87;0.20;;;24.90;67.40;;;;;;6110602;23;20407;-95
2023/08/28 12:52:33;;;;;;;1.08;0.20;;;24.70;65.80;;;;;;6103229;23;20430;-96
2023/08/28 12:54:59;;;;;;;1.92;0.22;;;24.40;70.30;;;;;;6102623;23;20383;-96
2023/08/28 12:57:25;;;;;;;2.60;0.20;;;24.10;71.10;;;;;;6102728;23;20379;-95
2023/08/28 12:59:53;;;;;;;1.02;0.20;;;23.80;69.30;;;;;;6101506;23;20486;-96
2023/08/28 13:02:33;;;;;;;2.03;0.20;;;23.60;72.30;;;;;;6106628;23;20375;-95
2023/08/28 13:05:00;;;;;;;2.75;0.55;;;23.50;72.30;;;;;;6099276;23;20566;-96
2023/08/28 13:07:31;;;;;;;4.63;1.30;;;23.20;90.00;;;;;;6103832;23;20378;-95